Time;durP1;ratioP1;P1;durP2;ratioP2;P2;SDS_P1;SDS_P2;PMS_P1;PMS_P2;Temp;Humidity;BMP_temperature;BMP_pressure;BME280_temperature;BME280_humidity;BME280_pressure;Samples;Min_cycle;Max_cycle;Signal;HPM_P1;HPM_P2
2023/07/20 00:01:08;;;;;;;3.53;2.20;;;16.50;1.00;;;;;;5093598;28;20635;-47
2023/07/20 00:03:33;;;;;;;4.10;2.23;;;16.60;1.00;;;;;;5094019;28;20523;-46
2023/07/20 00:05:59;;;;;;;3.53;2.40;;;16.60;1.00;;;;;;5093859;28;20194;-47
2023/07/20 00:08:24;;;;;;;2.90;1.97;;;16.60;1.00;;;;;;5094307;28;20182;-47
2023/07/20 00:10:50;;;;;;;4.40;2.47;;;16.50;1.00;;;;;;5093549;28;20202;-48
2023/07/20 00:13:18;;;;;;;4.07;2.50;;;16.60;1.00;;;;;;5093537;28;20185;-47
2023/07/20 00:15:44;;;;;;;2.53;1.90;;;16.50;1.00;;;;;;5093289;28;20206;-46
2023/07/20 00:18:09;;;;;;;2.43;1.70;;;16.50;1.00;;;;;;5093167;28;20542;-47
2023/07/20 00:20:35;;;;;;;2.73;1.90;;;16.50;1.00;;;;;;5093612;28;20167;-45
2023/07/20 00:23:01;;;;;;;3.23;2.00;;;16.50;1.00;;;;;;5093103;28;20760;-47
2023/07/20 00:25:26;;;;;;;2.50;1.63;;;16.40;1.00;;;;;;5093123;28;20211;-46
2023/07/20 00:27:52;;;;;;;3.73;2.00;;;16.40;1.00;;;;;;5092975;28;20175;-47
2023/07/20 00:30:18;;;;;;;3.20;1.90;;;16.30;1.00;;;;;;5092882;28;20191;-45
2023/07/20 00:32:44;;;;;;;5.10;2.23;;;16.30;1.00;;;;;;5092954;28;20205;-46
2023/07/20 00:35:11;;;;;;;1.70;1.60;;;16.20;1.00;;;;;;5092710;28;20211;-46
2023/07/20 00:37:36;;;;;;;3.20;2.10;;;16.20;1.00;;;;;;5096366;28;20189;-46
2023/07/20 00:40:04;;;;;;;1.93;1.50;;;16.20;1.00;;;;;;5096734;28;20646;-47
2023/07/20 00:42:31;;;;;;;1.73;1.57;;;16.20;1.00;;;;;;5096881;28;20183;-45
2023/07/20 00:44:56;;;;;;;4.40;1.80;;;16.10;1.00;;;;;;5096511;28;20179;-48
2023/07/20 00:47:22;;;;;;;2.80;1.97;;;16.10;1.00;;;;;;5096761;28;20181;-46
2023/07/20 00:49:48;;;;;;;2.87;1.90;;;16.10;1.00;;;;;;5096363;28;20643;-47
2023/07/20 00:52:14;;;;;;;3.10;2.10;;;16.10;1.00;;;;;;5096360;28;20549;-47
2023/07/20 00:54:41;;;;;;;3.30;2.40;;;16.10;1.00;;;;;;5096237;28;20218;-46
2023/07/20 00:57:07;;;;;;;2.37;1.93;;;16.10;1.00;;;;;;5096369;28;20179;-47
2023/07/20 00:59:34;;;;;;;3.10;1.70;;;16.10;1.00;;;;;;5096534;28;20215;-45
2023/07/20 01:02:00;;;;;;;3.63;1.93;;;16.10;1.00;;;;;;5096280;28;20185;-46
2023/07/20 01:04:27;;;;;;;3.87;2.00;;;16.10;1.00;;;;;;5096280;28;20596;-47
2023/07/20 01:07:32;;;;;;;3.23;1.93;;;16.10;1.00;;;;;;5096291;28;20206;-46
2023/07/20 01:10:06;;;;;;;3.60;1.97;;;16.10;1.00;;;;;;5096001;28;20167;-47
2023/07/20 01:13:00;;;;;;;3.63;2.70;;;16.10;1.00;;;;;;5095978;28;20224;-47
2023/07/20 01:15:25;;;;;;;4.17;2.27;;;16.10;1.00;;;;;;5093417;28;20296;-46
2023/07/20 01:17:51;;;;;;;5.90;2.40;;;16.10;1.00;;;;;;5096092;28;20228;-47
2023/07/20 01:20:22;;;;;;;3.40;2.37;;;16.10;1.00;;;;;;5095764;28;20266;-45
2023/07/20 01:23:12;;;;;;;3.97;2.13;;;16.00;1.00;;;;;;5095771;28;20165;-47
2023/07/20 01:25:57;;;;;;;2.97;2.10;;;16.00;1.00;;;;;;5095858;28;20211;-46
2023/07/20 01:28:43;;;;;;;3.27;2.20;;;15.90;1.00;;;;;;5095682;28;20182;-46
2023/07/20 01:31:24;;;;;;;3.43;2.00;;;15.90;1.00;;;;;;5096188;28;20171;-45
2023/07/20 01:33:53;;;;;;;2.90;2.37;;;15.90;1.00;;;;;;5096397;28;20179;-46
2023/07/20 01:36:21;;;;;;;3.90;2.50;;;15.90;1.00;;;;;;5096333;28;20297;-47
2023/07/20 01:38:47;;;;;;;6.77;2.43;;;15.90;1.00;;;;;;5096662;28;20190;-46
2023/07/20 01:41:14;;;;;;;4.50;2.13;;;15.90;1.00;;;;;;5095854;28;20175;-45
2023/07/20 01:43:40;;;;;;;5.50;2.30;;;15.90;1.00;;;;;;5095776;28;20254;-46
2023/07/20 01:46:06;;;;;;;4.60;2.27;;;15.90;1.00;;;;;;5095325;28;20194;-47
2023/07/20 01:48:31;;;;;;;5.03;2.70;;;15.90;1.00;;;;;;5095524;28;20179;-47
2023/07/20 01:50:57;;;;;;;4.63;2.50;;;15.90;1.00;;;;;;5095671;28;20198;-47
2023/07/20 01:53:23;;;;;;;4.87;2.30;;;15.90;1.00;;;;;;5095325;28;20244;-46
2023/07/20 01:55:48;;;;;;;4.67;2.30;;;15.90;1.00;;;;;;5094841;28;20594;-48
2023/07/20 01:58:14;;;;;;;7.50;2.63;;;15.90;1.00;;;;;;5095361;28;20632;-45
2023/07/20 02:00:39;;;;;;;4.27;2.67;;;15.90;1.00;;;;;;5095242;28;20179;-48
2023/07/20 02:03:05;;;;;;;5.53;2.83;;;15.90;1.00;;;;;;5095090;28;20196;-46
2023/07/20 02:05:31;;;;;;;4.07;2.60;;;15.90;1.00;;;;;;5094935;28;20198;-47
2023/07/20 02:07:56;;;;;;;7.40;2.50;;;16.00;1.00;;;;;;5095171;28;20185;-47
2023/07/20 02:10:22;;;;;;;4.63;2.60;;;15.90;1.00;;;;;;5094821;28;20175;-47
2023/07/20 02:12:48;;;;;;;6.43;2.83;;;16.00;1.00;;;;;;5095041;28;20175;-46
2023/07/20 02:15:16;;;;;;;4.80;2.50;;;16.00;1.00;;;;;;5095077;28;20722;-45
2023/07/20 02:17:42;;;;;;;3.50;2.50;;;16.00;1.00;;;;;;5094925;28;20220;-46
2023/07/20 02:20:12;;;;;;;3.70;2.77;;;16.00;1.00;;;;;;5094623;28;20232;-48
2023/07/20 02:22:39;;;;;;;4.17;2.70;;;16.00;1.00;;;;;;5094684;28;20213;-46
2023/07/20 02:25:05;;;;;;;3.47;2.30;;;16.00;1.00;;;;;;5094495;28;20248;-46
2023/07/20 02:27:31;;;;;;;4.37;2.27;;;16.00;1.00;;;;;;5094726;28;20182;-46
2023/07/20 02:29:56;;;;;;;6.57;2.67;;;16.00;1.00;;;;;;5094592;28;20206;-46
2023/07/20 02:32:22;;;;;;;4.73;2.60;;;16.00;1.00;;;;;;5094433;28;20708;-47
2023/07/20 02:34:48;;;;;;;4.93;2.70;;;16.00;1.00;;;;;;5094339;28;20191;-48
2023/07/20 02:37:13;;;;;;;3.83;2.53;;;15.90;1.00;;;;;;5094518;28;20220;-46
2023/07/20 02:39:39;;;;;;;2.97;2.03;;;15.90;1.00;;;;;;5094211;28;20175;-46
2023/07/20 02:42:05;;;;;;;3.77;2.50;;;15.90;1.00;;;;;;5094278;28;20171;-47
2023/07/20 02:44:31;;;;;;;6.43;2.77;;;15.80;1.00;;;;;;5094370;28;20179;-46
2023/07/20 02:46:56;;;;;;;3.70;2.60;;;15.80;1.00;;;;;;5094099;28;20199;-47
2023/07/20 02:49:22;;;;;;;3.27;2.17;;;15.70;1.00;;;;;;5094045;28;20170;-46
2023/07/20 02:51:48;;;;;;;5.63;2.83;;;15.70;1.00;;;;;;5093963;28;20190;-46
2023/07/20 02:54:13;;;;;;;4.93;2.80;;;15.70;1.00;;;;;;5093969;28;20198;-46
2023/07/20 02:56:39;;;;;;;4.73;2.53;;;15.70;1.00;;;;;;5093836;28;20244;-46
2023/07/20 02:59:04;;;;;;;6.00;2.63;;;15.70;1.00;;;;;;5093219;28;20181;-47
2023/07/20 03:01:30;;;;;;;9.43;2.63;;;15.60;1.00;;;;;;5075743;28;20524;-46
2023/07/20 03:03:56;;;;;;;7.23;2.90;;;15.60;1.00;;;;;;5094024;28;20183;-45
2023/07/20 03:06:22;;;;;;;4.87;2.50;;;15.50;1.00;;;;;;5093758;28;20202;-45
2023/07/20 03:08:48;;;;;;;10.33;2.60;;;15.50;1.00;;;;;;5093800;28;20175;-47
2023/07/20 03:11:17;;;;;;;7.23;2.87;;;15.50;1.00;;;;;;5094037;28;20183;-47
2023/07/20 03:13:44;;;;;;;3.70;2.37;;;15.40;1.00;;;;;;5093880;28;20179;-47
2023/07/20 03:16:11;;;;;;;4.43;2.27;;;15.40;1.00;;;;;;5093669;28;20263;-46
2023/07/20 03:18:39;;;;;;;4.87;2.33;;;15.40;1.00;;;;;;5094023;28;20197;-46
2023/07/20 03:21:06;;;;;;;5.50;2.60;;;15.30;1.00;;;;;;5093732;28;20167;-47
2023/07/20 03:23:32;;;;;;;4.23;2.20;;;15.30;1.00;;;;;;5093697;28;20164;-46
2023/07/20 03:25:57;;;;;;;5.53;2.77;;;15.20;1.00;;;;;;5093607;28;20202;-47
2023/07/20 03:28:23;;;;;;;5.07;2.57;;;15.20;1.00;;;;;;5093874;28;20643;-46
2023/07/20 03:30:58;;;;;;;4.43;2.73;;;15.20;1.00;;;;;;5093581;28;20179;-46
2023/07/20 03:33:26;;;;;;;4.27;1.97;;;15.30;1.00;;;;;;5093572;28;20205;-46
2023/07/20 03:35:52;;;;;;;5.20;2.40;;;15.30;1.00;;;;;;5093431;28;20293;-47
2023/07/20 03:38:18;;;;;;;4.97;2.23;;;15.30;1.00;;;;;;5093777;28;20171;-47
2023/07/20 03:40:54;;;;;;;6.10;2.97;;;15.30;1.00;;;;;;5093710;28;20182;-46
2023/07/20 03:43:21;;;;;;;4.43;2.70;;;15.30;1.00;;;;;;5093758;28;20165;-46
2023/07/20 03:45:47;;;;;;;6.53;3.10;;;15.30;1.00;;;;;;5075305;28;20202;-47
2023/07/20 03:48:15;;;;;;;3.37;2.07;;;15.30;2.70;;;;;;5093647;28;20728;-46
2023/07/20 03:50:40;;;;;;;4.40;2.70;;;15.30;1.00;;;;;;5093446;28;20167;-46
2023/07/20 03:53:06;;;;;;;4.23;2.70;;;15.30;1.00;;;;;;5093575;28;20183;-46
2023/07/20 03:55:31;;;;;;;10.23;3.27;;;15.40;3.00;;;;;;5093077;28;20210;-45
2023/07/20 03:57:57;;;;;;;7.57;2.70;;;15.30;1.00;;;;;;5094373;28;20231;-46
2023/07/20 04:00:23;;;;;;;4.80;2.50;;;15.40;1.00;;;;;;5093270;28;20171;-45
2023/07/20 04:02:49;;;;;;;6.37;2.73;;;15.40;1.00;;;;;;5093573;28;20532;-47
2023/07/20 04:05:14;;;;;;;5.03;2.70;;;15.40;1.00;;;;;;5093064;28;20234;-46
2023/07/20 04:07:41;;;;;;;6.77;2.70;;;15.40;1.00;;;;;;5093424;28;20296;-47
2023/07/20 04:10:07;;;;;;;6.00;3.00;;;15.50;1.00;;;;;;5094406;28;20623;-46
2023/07/20 04:12:32;;;;;;;5.33;3.03;;;15.50;1.00;;;;;;5097549;28;20185;-47
2023/07/20 04:14:58;;;;;;;5.93;3.00;;;15.50;1.00;;;;;;5097164;28;20224;-47
2023/07/20 04:17:23;;;;;;;6.70;2.97;;;15.50;1.00;;;;;;5097228;28;20656;-46
2023/07/20 04:19:49;;;;;;;9.57;3.67;;;15.50;1.00;;;;;;5097370;28;20232;-46
2023/07/20 04:22:15;;;;;;;7.07;2.90;;;15.50;1.00;;;;;;5097370;28;20237;-45
2023/07/20 04:24:42;;;;;;;6.70;3.00;;;15.50;10.30;;;;;;5097236;28;20189;-46
2023/07/20 04:27:08;;;;;;;7.20;3.60;;;15.50;14.70;;;;;;5097241;28;20183;-46
2023/07/20 04:29:33;;;;;;;11.90;3.60;;;15.50;15.80;;;;;;5096939;28;20186;-46
2023/07/20 04:31:59;;;;;;;5.90;3.33;;;15.50;7.40;;;;;;5097410;28;20510;-46
2023/07/20 04:34:25;;;;;;;8.57;3.50;;;15.60;2.20;;;;;;5096755;28;20524;-46
2023/07/20 04:36:50;;;;;;;9.70;3.87;;;15.60;1.00;;;;;;5096793;28;20191;-46
2023/07/20 04:39:16;;;;;;;7.33;3.40;;;15.70;1.00;;;;;;5096765;28;20172;-46
2023/07/20 04:41:41;;;;;;;5.77;3.07;;;15.70;1.00;;;;;;5096718;28;20182;-45
2023/07/20 04:44:07;;;;;;;11.43;4.03;;;15.80;1.00;;;;;;5097226;28;20531;-47
2023/07/20 04:46:32;;;;;;;5.83;3.33;;;15.80;1.00;;;;;;5096711;28;20195;-46
2023/07/20 04:48:58;;;;;;;8.73;3.40;;;15.90;2.80;;;;;;5096906;28;20171;-46
2023/07/20 04:51:23;;;;;;;9.87;4.00;;;15.80;1.00;;;;;;5096956;28;20180;-45
2023/07/20 04:53:49;;;;;;;11.77;3.00;;;15.90;1.00;;;;;;5096622;28;20240;-46
2023/07/20 04:56:15;;;;;;;8.47;3.40;;;15.90;1.00;;;;;;5096362;28;20214;-46
2023/07/20 04:58:40;;;;;;;8.47;4.20;;;15.90;1.00;;;;;;5096629;28;20542;-46
2023/07/20 05:01:08;;;;;;;7.63;3.93;;;15.90;1.00;;;;;;5096582;28;20175;-47
2023/07/20 05:03:33;;;;;;;6.90;3.40;;;15.90;1.00;;;;;;5096929;28;20174;-46
2023/07/20 05:05:59;;;;;;;9.53;4.30;;;16.00;1.00;;;;;;5096347;28;20199;-48
2023/07/20 05:08:25;;;;;;;6.40;4.20;;;16.00;1.00;;;;;;5096439;28;20721;-46
2023/07/20 05:10:50;;;;;;;8.23;4.17;;;16.10;1.00;;;;;;5096788;28;20171;-46
2023/07/20 05:13:16;;;;;;;12.27;4.57;;;16.10;1.00;;;;;;5097006;28;20266;-46
2023/07/20 05:15:42;;;;;;;10.87;6.40;;;16.10;1.00;;;;;;5097137;28;20268;-42
2023/07/20 05:18:08;;;;;;;6.93;4.63;;;16.20;4.40;;;;;;5097041;28;20697;-42
2023/07/20 05:20:35;;;;;;;8.30;5.13;;;16.30;1.00;;;;;;5096370;28;20182;-41
2023/07/20 05:23:01;;;;;;;7.83;4.97;;;16.30;1.00;;;;;;5096562;28;20228;-39
2023/07/20 05:25:26;;;;;;;7.73;5.53;;;16.30;1.00;;;;;;5096442;28;20240;-40
2023/07/20 05:27:52;;;;;;;9.47;5.80;;;16.30;1.00;;;;;;5095989;28;20589;-39
2023/07/20 05:30:18;;;;;;;8.57;5.93;;;16.40;1.00;;;;;;5095904;28;20177;-40
2023/07/20 05:32:47;;;;;;;10.83;6.83;;;16.40;1.00;;;;;;5096023;28;20178;-40
2023/07/20 05:35:13;;;;;;;8.47;7.00;;;16.50;1.00;;;;;;5095784;28;20222;-39
2023/07/20 05:37:39;;;;;;;10.77;7.20;;;16.50;1.00;;;;;;5095703;28;20201;-39
2023/07/20 05:40:07;;;;;;;13.40;7.20;;;16.40;1.00;;;;;;5095620;28;20581;-42
2023/07/20 05:42:33;;;;;;;10.23;7.00;;;16.50;1.50;;;;;;5095862;28;20179;-46
2023/07/20 05:44:58;;;;;;;14.07;8.07;;;16.60;1.00;;;;;;5077289;28;20186;-47
2023/07/20 05:47:24;;;;;;;11.47;8.00;;;16.70;1.00;;;;;;5095698;28;20183;-46
2023/07/20 05:49:50;;;;;;;12.77;7.30;;;16.80;1.00;;;;;;5095441;28;20186;-47
2023/07/20 05:52:15;;;;;;;9.33;6.43;;;16.80;1.00;;;;;;5095936;28;20595;-46
2023/07/20 05:54:41;;;;;;;12.90;7.80;;;16.80;1.00;;;;;;5095566;28;20667;-47
2023/07/20 05:57:07;;;;;;;10.43;7.40;;;16.80;1.00;;;;;;5095452;28;20251;-48
2023/07/20 05:59:33;;;;;;;12.93;8.30;;;16.90;1.00;;;;;;5095489;28;20171;-45
2023/07/20 06:01:58;;;;;;;12.10;7.90;;;16.90;1.00;;;;;;5095147;28;20182;-46
2023/07/20 06:04:24;;;;;;;14.23;7.23;;;17.00;1.00;;;;;;5095062;28;20178;-46
2023/07/20 06:06:50;;;;;;;13.33;8.20;;;17.10;1.00;;;;;;5095359;28;20201;-47
2023/07/20 06:09:15;;;;;;;17.07;8.73;;;17.20;1.00;;;;;;5095321;28;20284;-46
2023/07/20 06:11:41;;;;;;;12.53;8.40;;;17.40;1.00;;;;;;5094884;28;20179;-47
2023/07/20 06:14:06;;;;;;;11.63;8.03;;;17.40;1.00;;;;;;5094965;28;20215;-48
2023/07/20 06:16:32;;;;;;;12.67;8.30;;;17.40;1.00;;;;;;5094974;28;20210;-47
2023/07/20 06:19:00;;;;;;;11.67;8.17;;;17.50;1.00;;;;;;5095101;28;20214;-46
2023/07/20 06:21:25;;;;;;;10.00;7.30;;;17.50;1.00;;;;;;5095071;28;20179;-47
2023/07/20 06:23:51;;;;;;;10.27;7.50;;;17.50;1.00;;;;;;5094722;28;20632;-46
2023/07/20 06:26:16;;;;;;;10.63;7.33;;;17.50;1.00;;;;;;5094618;28;20202;-47
2023/07/20 06:28:42;;;;;;;9.77;7.33;;;17.60;1.00;;;;;;5095058;28;20179;-47
2023/07/20 06:31:07;;;;;;;10.50;6.90;;;17.60;1.00;;;;;;5094785;28;20263;-47
2023/07/20 06:33:34;;;;;;;10.10;6.87;;;17.70;1.00;;;;;;5093562;28;20186;-46
2023/07/20 06:36:00;;;;;;;7.80;6.50;;;17.70;1.00;;;;;;5094637;28;20217;-45
2023/07/20 06:38:26;;;;;;;9.50;7.13;;;17.90;1.00;;;;;;5094510;28;20175;-48
2023/07/20 06:40:52;;;;;;;11.97;7.40;;;18.00;1.00;;;;;;5094382;28;20174;-47
2023/07/20 06:43:18;;;;;;;10.10;7.50;;;18.10;1.00;;;;;;5094588;28;20171;-47
2023/07/20 06:45:43;;;;;;;8.77;7.20;;;18.20;1.00;;;;;;5094213;28;20203;-46
2023/07/20 06:48:09;;;;;;;12.37;7.80;;;18.20;1.00;;;;;;5094268;28;20178;-47
2023/07/20 06:50:35;;;;;;;10.73;7.73;;;18.20;1.00;;;;;;5094543;28;20270;-47
2023/07/20 06:53:03;;;;;;;15.40;8.17;;;18.20;1.00;;;;;;5094734;28;20533;-48
2023/07/20 06:55:29;;;;;;;11.67;8.53;;;18.20;1.00;;;;;;5093868;28;20297;-48
2023/07/20 06:57:55;;;;;;;10.63;8.07;;;18.20;1.00;;;;;;5094089;28;20259;-47
2023/07/20 07:00:20;;;;;;;11.87;7.13;;;18.30;1.00;;;;;;5094021;28;20254;-47
2023/07/20 07:02:46;;;;;;;10.13;7.17;;;18.30;1.00;;;;;;5093985;28;20177;-48
2023/07/20 07:05:14;;;;;;;9.23;6.83;;;18.40;1.00;;;;;;5075724;28;20209;-48
2023/07/20 07:07:39;;;;;;;9.10;7.47;;;18.60;1.00;;;;;;5094684;28;20178;-47
2023/07/20 07:10:06;;;;;;;10.17;7.33;;;18.70;1.00;;;;;;5093846;28;20171;-48
2023/07/20 07:12:31;;;;;;;8.43;6.73;;;18.70;1.00;;;;;;5094088;28;20183;-47
2023/07/20 07:14:58;;;;;;;12.50;7.30;;;18.90;1.00;;;;;;5093583;28;20209;-48
2023/07/20 07:17:23;;;;;;;11.33;7.40;;;19.00;1.00;;;;;;5093812;28;20669;-48
2023/07/20 07:19:49;;;;;;;12.27;7.83;;;18.90;1.00;;;;;;5094076;28;20175;-48
2023/07/20 07:22:14;;;;;;;10.07;7.93;;;18.90;1.00;;;;;;5094058;28;20272;-47
2023/07/20 07:24:41;;;;;;;9.03;7.83;;;18.90;1.00;;;;;;5093593;28;20663;-47
2023/07/20 07:27:08;;;;;;;7.20;6.50;;;19.10;1.00;;;;;;5093600;28;20686;-48
2023/07/20 07:29:34;;;;;;;11.77;7.17;;;19.30;1.00;;;;;;5093600;28;20185;-48
2023/07/20 07:32:01;;;;;;;11.80;8.53;;;19.50;1.00;;;;;;5093591;28;20258;-47
2023/07/20 07:34:27;;;;;;;15.40;9.10;;;19.50;1.00;;;;;;5075701;28;20675;-47
2023/07/20 07:36:53;;;;;;;15.77;9.93;;;19.50;1.00;;;;;;5093548;28;20205;-48
2023/07/20 07:39:19;;;;;;;15.97;9.10;;;19.40;1.00;;;;;;5093732;28;20179;-47
2023/07/20 07:41:44;;;;;;;10.67;7.43;;;19.40;1.00;;;;;;5093712;28;20618;-49
2023/07/20 07:44:10;;;;;;;9.43;7.23;;;19.40;1.00;;;;;;5093418;28;20615;-48
2023/07/20 07:46:36;;;;;;;10.90;6.67;;;19.60;1.00;;;;;;5093331;28;20202;-48
2023/07/20 07:49:01;;;;;;;6.93;5.10;;;19.80;99.90;;;;;;5093376;28;20182;-46
2023/07/20 07:51:27;;;;;;;7.47;5.90;;;20.10;1.00;;;;;;5093323;28;20186;-49
2023/07/20 07:53:52;;;;;;;7.53;6.00;;;20.30;99.90;;;;;;5093583;28;20191;-48
2023/07/20 07:56:22;;;;;;;7.60;5.80;;;20.40;1.00;;;;;;5093253;28;20210;-48
2023/07/20 07:58:51;;;;;;;9.70;5.97;;;20.40;1.00;;;;;;5093343;28;20571;-50
2023/07/20 08:01:18;;;;;;;5.87;4.93;;;20.40;1.00;;;;;;5093323;28;20543;-49
2023/07/20 08:03:46;;;;;;;6.70;5.30;;;20.40;87.30;;;;;;5093480;28;20221;-49
2023/07/20 08:06:15;;;;;;;7.73;4.23;;;20.40;1.00;;;;;;5093164;28;20203;-48
2023/07/20 08:08:42;;;;;;;6.50;4.67;;;20.20;1.00;;;;;;5093581;28;20175;-49
2023/07/20 08:11:08;;;;;;;9.23;6.00;;;20.10;1.00;;;;;;5075252;28;20588;-46
2023/07/20 08:13:34;;;;;;;11.33;5.97;;;20.20;61.30;;;;;;5093142;28;20273;-46
2023/07/20 08:15:59;;;;;;;6.93;4.97;;;20.30;99.90;;;;;;5093161;28;20289;-46
2023/07/20 08:18:25;;;;;;;6.37;4.50;;;20.70;99.90;;;;;;5093124;28;20198;-46
2023/07/20 08:20:50;;;;;;;5.20;4.33;;;21.00;99.90;;;;;;5093131;28;20179;-48
2023/07/20 08:23:16;;;;;;;6.13;3.33;;;21.20;1.00;;;;;;5093341;28;20596;-46
2023/07/20 08:25:45;;;;;;;3.73;3.10;;;21.10;1.00;;;;;;5093187;28;20263;-48
2023/07/20 08:28:13;;;;;;;7.03;2.80;;;21.20;1.00;;;;;;5093307;28;20187;-48
2023/07/20 08:30:48;;;;;;;3.10;2.67;;;21.10;99.90;;;;;;5093229;28;20182;-47
2023/07/20 08:33:15;;;;;;;4.50;3.20;;;21.20;1.00;;;;;;5093383;28;20224;-46
2023/07/20 08:35:42;;;;;;;5.90;3.13;;;21.20;99.90;;;;;;5092805;28;20315;-46
2023/07/20 08:38:08;;;;;;;4.77;2.30;;;21.30;99.90;;;;;;5092908;28;20540;-48
2023/07/20 08:40:39;;;;;;;3.53;2.47;;;21.30;1.00;;;;;;5093056;28;20168;-46
2023/07/20 08:43:04;;;;;;;5.63;3.10;;;21.30;99.90;;;;;;5093500;28;20163;-47
2023/07/20 08:45:34;;;;;;;2.80;2.00;;;21.30;1.00;;;;;;5092771;28;20202;-47
2023/07/20 08:48:03;;;;;;;4.30;1.50;;;21.30;1.00;;;;;;5092829;28;20175;-47
2023/07/20 08:50:30;;;;;;;2.10;1.07;;;21.30;1.00;;;;;;5092910;28;20155;-48
2023/07/20 08:52:58;;;;;;;3.50;1.50;;;21.40;99.90;;;;;;5093160;28;20224;-47
2023/07/20 08:55:26;;;;;;;1.47;1.30;;;21.50;99.90;;;;;;5092494;28;20707;-48
2023/07/20 08:57:54;;;;;;;2.87;1.50;;;21.40;30.00;;;;;;5094751;28;20262;-46
2023/07/20 09:00:21;;;;;;;2.30;1.40;;;21.40;99.90;;;;;;5096441;28;20254;-48
2023/07/20 09:02:54;;;;;;;2.37;1.53;;;21.40;99.90;;;;;;5096351;28;20178;-47
2023/07/20 09:05:20;;;;;;;1.30;1.20;;;21.40;1.00;;;;;;5096508;28;20202;-47
2023/07/20 09:07:46;;;;;;;4.73;1.70;;;21.40;1.00;;;;;;5096564;28;20175;-47
2023/07/20 09:10:12;;;;;;;3.33;1.50;;;21.30;99.90;;;;;;5096215;28;20179;-48
2023/07/20 09:12:40;;;;;;;2.03;1.60;;;21.40;99.90;;;;;;5096467;28;20187;-47
2023/07/20 09:15:07;;;;;;;1.80;1.40;;;21.70;1.00;;;;;;5096239;28;20209;-47
2023/07/20 09:17:33;;;;;;;1.67;1.13;;;21.90;1.00;;;;;;5096436;28;20186;-47
2023/07/20 09:20:01;;;;;;;3.07;1.20;;;21.90;1.00;;;;;;5096018;28;20179;-48
2023/07/20 09:22:30;;;;;;;1.57;1.13;;;22.10;99.90;;;;;;5096299;28;20160;-48
2023/07/20 09:24:57;;;;;;;2.73;1.10;;;22.30;99.90;;;;;;5095884;28;20765;-48
2023/07/20 09:27:29;;;;;;;3.00;0.97;;;22.40;1.00;;;;;;5096013;28;20174;-48
2023/07/20 09:29:56;;;;;;;2.10;1.03;;;22.60;99.90;;;;;;5096182;28;20210;-48
2023/07/20 09:32:22;;;;;;;2.00;1.00;;;22.70;99.90;;;;;;5096475;28;20179;-47
2023/07/20 09:34:51;;;;;;;2.03;1.20;;;22.90;1.00;;;;;;5095878;28;20758;-49
2023/07/20 09:37:24;;;;;;;2.33;1.13;;;23.00;99.90;;;;;;5095697;28;20178;-47
2023/07/20 09:39:52;;;;;;;2.63;0.70;;;23.00;99.90;;;;;;5095587;28;20647;-47
2023/07/20 09:42:20;;;;;;;1.63;0.90;;;23.30;99.90;;;;;;5095559;28;20190;-48
2023/07/20 09:44:46;;;;;;;4.60;1.00;;;23.60;99.90;;;;;;5095513;28;20203;-48
2023/07/20 09:47:12;;;;;;;1.07;0.90;;;23.70;99.90;;;;;;5095544;28;20586;-48
2023/07/20 09:49:41;;;;;;;1.10;0.90;;;23.80;99.90;;;;;;5077647;28;20179;-48
2023/07/20 09:52:09;;;;;;;1.93;1.20;;;23.90;1.00;;;;;;5095674;28;20190;-48
2023/07/20 09:54:37;;;;;;;1.10;0.90;;;23.80;1.00;;;;;;5095328;28;20563;-48
2023/07/20 09:57:04;;;;;;;1.03;0.90;;;23.60;99.90;;;;;;5077776;28;20194;-49
2023/07/20 09:59:29;;;;;;;0.70;0.70;;;23.30;99.90;;;;;;5095496;28;20605;-47
2023/07/20 10:01:59;;;;;;;1.30;1.20;;;23.10;99.90;;;;;;5095220;28;20259;-48
2023/07/20 10:04:26;;;;;;;1.93;1.03;;;23.20;1.00;;;;;;5095180;28;20167;-49
2023/07/20 10:06:54;;;;;;;2.40;0.90;;;23.50;1.00;;;;;;5095193;28;20199;-48
2023/07/20 10:09:22;;;;;;;1.77;0.90;;;23.80;1.00;;;;;;5094898;28;20661;-49
2023/07/20 10:11:50;;;;;;;0.77;0.67;;;24.10;99.90;;;;;;5095269;28;20202;-48
2023/07/20 10:14:20;;;;;;;1.70;1.03;;;23.90;99.90;;;;;;5095282;28;20231;-49
2023/07/20 10:16:56;;;;;;;1.17;0.90;;;23.60;99.90;;;;;;5095047;28;20279;-48
2023/07/20 10:19:29;;;;;;;1.27;0.80;;;23.60;99.90;;;;;;5095176;28;20590;-48
2023/07/20 10:22:07;;;;;;;2.20;0.80;;;23.60;1.00;;;;;;5095178;28;20159;-48
2023/07/20 10:24:34;;;;;;;1.13;0.77;;;23.50;99.90;;;;;;5095126;28;20603;-49
2023/07/20 10:27:00;;;;;;;3.10;0.80;;;23.40;60.30;;;;;;5094667;28;20230;-50
2023/07/20 10:29:27;;;;;;;1.03;0.63;;;23.60;1.00;;;;;;5094674;28;20539;-49
2023/07/20 10:31:54;;;;;;;1.57;0.77;;;23.90;1.00;;;;;;5094907;28;20201;-48
2023/07/20 10:34:21;;;;;;;1.43;1.07;;;24.40;99.90;;;;;;5094620;28;20179;-49
2023/07/20 10:36:55;;;;;;;1.13;1.03;;;24.70;99.90;;;;;;5094416;28;20737;-49
2023/07/20 10:39:30;;;;;;;1.13;0.80;;;24.70;78.20;;;;;;5094559;28;20163;-48
2023/07/20 10:42:03;;;;;;;0.90;0.90;;;24.50;1.00;;;;;;5094420;28;20573;-49
2023/07/20 10:44:29;;;;;;;1.58;1.00;;;24.20;99.90;;;;;;5094420;28;20257;-48
2023/07/20 10:47:05;;;;;;;1.87;1.10;;;24.10;99.90;;;;;;5076160;28;20614;-49
2023/07/20 10:49:33;;;;;;;1.30;0.90;;;24.00;99.90;;;;;;5094866;28;20521;-49
2023/07/20 10:52:03;;;;;;;2.40;0.90;;;24.00;1.00;;;;;;5094486;28;20182;-48
2023/07/20 10:54:28;;;;;;;1.80;1.00;;;23.90;1.00;;;;;;5094137;28;20552;-49
2023/07/20 10:56:57;;;;;;;1.25;0.90;;;23.90;1.00;;;;;;5094233;28;20304;-48
2023/07/20 10:59:25;;;;;;;2.80;1.00;;;23.90;1.00;;;;;;5094201;28;20185;-50
2023/07/20 11:02:01;;;;;;;1.40;0.90;;;23.90;1.00;;;;;;5094138;28;20546;-48
2023/07/20 11:04:53;;;;;;;1.10;1.00;;;23.70;1.00;;;;;;5094009;28;20193;-49
2023/07/20 11:07:40;;;;;;;1.77;1.13;;;23.60;1.00;;;;;;5090418;28;20186;-49
2023/07/20 11:10:15;;;;;;;1.93;0.80;;;23.50;99.90;;;;;;5094663;28;20163;-48
2023/07/20 11:12:41;;;;;;;1.50;1.00;;;23.30;1.00;;;;;;5093992;28;20171;-48
2023/07/20 11:15:07;;;;;;;2.13;1.53;;;23.50;1.00;;;;;;5094186;28;20219;-49
2023/07/20 11:17:33;;;;;;;0.90;0.77;;;23.80;69.80;;;;;;5094232;28;20175;-48
2023/07/20 11:20:03;;;;;;;1.77;0.90;;;24.10;99.90;;;;;;5093354;28;20179;-49
2023/07/20 11:22:31;;;;;;;0.70;0.70;;;24.20;1.00;;;;;;5094668;28;20152;-50
2023/07/20 11:24:57;;;;;;;1.43;0.80;;;24.30;99.90;;;;;;5093648;28;20266;-49
2023/07/20 11:27:23;;;;;;;2.03;0.70;;;24.50;99.90;;;;;;5094069;28;20175;-49
2023/07/20 11:29:50;;;;;;;2.23;1.00;;;24.60;92.60;;;;;;5093928;28;20186;-50
2023/07/20 11:32:23;;;;;;;1.07;0.83;;;24.80;86.70;;;;;;5093684;28;20213;-49
2023/07/20 11:34:49;;;;;;;1.03;0.87;;;25.00;1.00;;;;;;5093517;28;20235;-48
2023/07/20 11:37:16;;;;;;;0.90;0.80;;;25.10;99.90;;;;;;5093618;28;20202;-48
2023/07/20 11:39:42;;;;;;;1.30;1.00;;;25.20;99.90;;;;;;5093804;28;20584;-48
2023/07/20 11:42:08;;;;;;;1.53;1.00;;;25.30;99.90;;;;;;5093488;28;20179;-49
2023/07/20 11:44:34;;;;;;;1.10;0.80;;;25.30;1.00;;;;;;5093778;28;20186;-49
2023/07/20 11:47:11;;;;;;;1.67;1.10;;;25.20;99.90;;;;;;5093418;28;20198;-47
2023/07/20 11:49:41;;;;;;;2.93;0.80;;;25.20;60.50;;;;;;5093809;28;20182;-49
2023/07/20 11:52:13;;;;;;;1.77;1.00;;;25.20;1.00;;;;;;5093904;28;20634;-50
2023/07/20 11:54:40;;;;;;;1.30;0.88;;;25.20;1.00;;;;;;5093455;28;20199;-49
2023/07/20 11:57:06;;;;;;;2.90;0.90;;;25.10;1.00;;;;;;5093339;28;20253;-50
2023/07/20 11:59:32;;;;;;;1.93;0.90;;;25.10;7.20;;;;;;5093733;28;20175;-48
2023/07/20 12:02:02;;;;;;;0.90;0.73;;;25.00;1.00;;;;;;5093432;28;20179;-48
2023/07/20 12:04:28;;;;;;;0.98;0.93;;;25.00;93.30;;;;;;5093717;28;20178;-48
2023/07/20 12:06:55;;;;;;;1.17;0.77;;;25.00;1.00;;;;;;5093186;28;20234;-49
2023/07/20 12:09:21;;;;;;;1.10;0.70;;;24.90;99.90;;;;;;5093572;28;20175;-49
2023/07/20 12:11:49;;;;;;;1.07;0.70;;;24.90;99.90;;;;;;5093145;28;20678;-50
2023/07/20 12:14:15;;;;;;;3.73;0.93;;;24.90;1.00;;;;;;5093467;28;20175;-48
2023/07/20 12:16:41;;;;;;;0.83;0.80;;;25.00;63.90;;;;;;5093099;28;20271;-49
2023/07/20 12:19:11;;;;;;;1.30;1.00;;;25.20;99.90;;;;;;5093367;28;20585;-49
2023/07/20 12:21:39;;;;;;;1.20;0.97;;;25.40;99.90;;;;;;5093356;28;20190;-49
2023/07/20 12:24:05;;;;;;;3.00;0.85;;;25.60;99.90;;;;;;5093120;28;20175;-49
2023/07/20 12:26:32;;;;;;;1.07;0.80;;;25.60;63.40;;;;;;5093297;28;20206;-49
2023/07/20 12:28:58;;;;;;;0.90;0.80;;;25.60;24.80;;;;;;5093358;28;20266;-49
2023/07/20 12:31:25;;;;;;;2.58;0.90;;;25.60;1.00;;;;;;5094387;28;20662;-49
2023/07/20 12:33:51;;;;;;;3.03;0.90;;;25.60;99.90;;;;;;5078760;28;20646;-47
2023/07/20 12:36:18;;;;;;;5.20;0.85;;;25.60;15.20;;;;;;5096824;28;20218;-48
2023/07/20 12:38:43;;;;;;;1.10;0.80;;;25.70;99.90;;;;;;5097462;28;20628;-48
2023/07/20 12:41:13;;;;;;;1.33;0.70;;;25.90;1.00;;;;;;5097066;28;20186;-48
2023/07/20 12:43:38;;;;;;;2.30;0.77;;;26.00;27.80;;;;;;5096810;28;20175;-49
2023/07/20 12:46:04;;;;;;;1.20;0.87;;;26.10;1.00;;;;;;5096910;28;20213;-50
2023/07/20 12:48:30;;;;;;;1.83;0.83;;;26.20;1.00;;;;;;5097340;28;20182;-48
2023/07/20 12:50:55;;;;;;;3.22;0.90;;;26.30;1.00;;;;;;5097348;28;20186;-49
2023/07/20 12:53:21;;;;;;;1.25;1.02;;;26.40;1.00;;;;;;5097567;28;20183;-49